Time;durP1;ratioP1;P1;durP2;ratioP2;P2;SDS_P1;SDS_P2;PMS_P1;PMS_P2;Temp;Humidity;BMP_temperature;BMP_pressure;BME280_temperature;BME280_humidity;BME280_pressure;Samples;Min_cycle;Max_cycle;Signal;HPM_P1;HPM_P2
2022/09/25 00:01:10;;;;;;;;;;;;;;;20.94;49.02;95293.59;10491986;28;1970;-45
2022/09/25 00:06:11;;;;;;;;;;;;;;;20.92;48.95;95293.09;10458345;28;1968;-45
2022/09/25 00:11:21;;;;;;;;;;;;;;;20.91;49.00;95281.81;10457997;28;1922;-48
2022/09/25 00:16:22;;;;;;;;;;;;;;;20.89;49.04;95294.50;10463064;28;1893;-44
2022/09/25 00:21:32;;;;;;;;;;;;;;;20.91;48.67;95276.53;10460889;28;1987;-45
2022/09/25 00:26:35;;;;;;;;;;;;;;;20.85;48.94;95269.78;10499913;28;1936;-44
2022/09/25 00:31:35;;;;;;;;;;;;;;;20.85;48.47;95272.41;10473024;28;1864;-46
2022/09/25 00:36:36;;;;;;;;;;;;;;;20.87;48.48;95261.59;10456142;28;1893;-44
2022/09/25 00:41:37;;;;;;;;;;;;;;;20.84;48.70;95257.66;10454000;28;2244;-45
2022/09/25 00:46:38;;;;;;;;;;;;;;;20.84;48.51;95255.03;10459773;28;1892;-45
2022/09/25 00:51:47;;;;;;;;;;;;;;;20.80;48.44;95254.03;10459510;28;1881;-47
2022/09/25 00:56:48;;;;;;;;;;;;;;;20.81;48.85;95250.31;10453471;28;1880;-44
2022/09/25 01:01:49;;;;;;;;;;;;;;;20.81;48.63;95249.56;10453199;28;1910;-44
2022/09/25 01:06:49;;;;;;;;;;;;;;;20.82;48.68;95251.91;10466257;28;1975;-46
2022/09/25 01:11:50;;;;;;;;;;;;;;;20.82;48.55;95251.91;10460633;28;1991;-45
2022/09/25 01:16:52;;;;;;;;;;;;;;;20.79;48.49;95251.69;10463017;28;1661;-44
2022/09/25 01:21:55;;;;;;;;;;;;;;;20.79;48.37;95251.69;10487232;28;2184;-45
2022/09/25 01:27:05;;;;;;;;;;;;;;;20.79;48.33;95251.69;10452230;28;1912;-45
2022/09/25 01:32:12;;;;;;;;;;;;;;;20.81;48.48;95237.16;10461229;28;1979;-45
2022/09/25 01:37:19;;;;;;;;;;;;;;;20.75;48.43;95235.66;10455943;28;2170;-45
2022/09/25 01:42:21;;;;;;;;;;;;;;;20.74;48.31;95239.38;10449112;28;1922;-44
2022/09/25 01:47:28;;;;;;;;;;;;;;;20.76;47.95;95231.97;10478305;28;1855;-44
2022/09/25 01:52:31;;;;;;;;;;;;;;;20.74;48.14;95228.84;10450011;28;1896;-44
2022/09/25 01:57:37;;;;;;;;;;;;;;;20.70;48.09;95219.16;10454134;28;1788;-45
2022/09/25 02:03:01;;;;;;;;;;;;;;;20.71;48.22;95221.50;10460323;28;1967;-45
2022/09/25 02:08:06;;;;;;;;;;;;;;;20.71;48.22;95218.88;10466756;28;1945;-44
2022/09/25 02:13:11;;;;;;;;;;;;;;;20.70;48.14;95233.13;10476049;28;1893;-46
2022/09/25 02:23:47;;;;;;;;;;;;;;;20.66;48.34;95237.41;10475292;28;1979;-44
2022/09/25 02:28:48;;;;;;;;;;;;;;;20.66;47.98;95245.31;10474122;28;2888;-46
2022/09/25 02:33:49;;;;;;;;;;;;;;;20.65;48.21;95238.44;10454892;28;1868;-45
2022/09/25 02:38:49;;;;;;;;;;;;;;;20.69;48.19;95251.84;10455744;28;1999;-44
2022/09/25 02:43:50;;;;;;;;;;;;;;;20.66;48.04;95247.94;10456642;28;1932;-45
2022/09/25 02:48:50;;;;;;;;;;;;;;;20.68;47.97;95245.78;10465628;28;1829;-44
2022/09/25 02:53:58;;;;;;;;;;;;;;;20.65;48.08;95241.09;10460660;28;1888;-46
2022/09/25 02:59:04;;;;;;;;;;;;;;;20.66;47.89;95226.88;10467317;28;1923;-44
2022/09/25 03:04:04;;;;;;;;;;;;;;;20.63;48.12;95226.66;10490972;28;1966;-44
2022/09/25 03:09:05;;;;;;;;;;;;;;;20.63;47.70;95227.44;10496100;28;2018;-45
2022/09/25 03:14:05;;;;;;;;;;;;;;;20.62;47.71;95219.81;10501651;28;1869;-44
2022/09/25 03:19:05;;;;;;;;;;;;;;;20.61;47.96;95220.91;10465933;28;1735;-47
2022/09/25 03:24:06;;;;;;;;;;;;;;;20.63;47.88;95203.72;10458247;28;1969;-44
2022/09/25 03:29:06;;;;;;;;;;;;;;;20.62;47.85;95204.81;10465995;28;2013;-46
2022/09/25 03:34:07;;;;;;;;;;;;;;;20.61;47.94;95207.72;10460774;28;1892;-44
2022/09/25 03:39:09;;;;;;;;;;;;;;;20.63;47.72;95198.47;10459529;28;2017;-44
2022/09/25 03:44:09;;;;;;;;;;;;;;;20.71;47.78;95197.81;10465587;28;1894;-44
2022/09/25 03:49:10;;;;;;;;;;;;;;;20.80;47.44;95190.81;10463603;28;1891;-44
2022/09/25 03:54:10;;;;;;;;;;;;;;;20.84;47.17;95191.81;10462533;28;1844;-44
2022/09/25 03:59:10;;;;;;;;;;;;;;;20.89;46.96;95199.66;10462451;28;1849;-44
2022/09/25 04:04:13;;;;;;;;;;;;;;;20.90;47.06;95185.38;10458716;28;1910;-45
2022/09/25 04:09:13;;;;;;;;;;;;;;;20.91;46.95;95186.97;10457067;28;1936;-44
2022/09/25 04:14:14;;;;;;;;;;;;;;;20.94;46.62;95190.84;10450788;28;1826;-44
2022/09/25 04:19:15;;;;;;;;;;;;;;;20.93;46.35;95182.19;10456912;28;1797;-45
2022/09/25 04:29:34;;;;;;;;;;;;;;;20.93;45.79;95184.03;10462196;28;1948;-47
2022/09/25 04:34:34;;;;;;;;;;;;;;;20.94;45.59;95185.59;10452948;28;1893;-45
2022/09/25 04:39:35;;;;;;;;;;;;;;;20.96;45.79;95186.88;10451989;28;1975;-44
2022/09/25 04:44:35;;;;;;;;;;;;;;;21.01;46.05;95197.34;10455122;28;1944;-44
2022/09/25 04:49:37;;;;;;;;;;;;;;;21.03;45.26;95189.94;10460040;28;1943;-44
2022/09/25 04:54:37;;;;;;;;;;;;;;;21.05;45.21;95194.91;10459994;28;1880;-45
2022/09/25 04:59:38;;;;;;;;;;;;;;;21.06;45.04;95192.00;10462358;28;1904;-47
2022/09/25 05:04:38;;;;;;;;;;;;;;;21.08;44.78;95196.19;10455986;28;2125;-46
2022/09/25 05:09:38;;;;;;;;;;;;;;;21.12;44.86;95199.81;10451466;28;1908;-46
2022/09/25 05:14:41;;;;;;;;;;;;;;;21.14;44.89;95201.09;10448472;28;1864;-47
2022/09/25 05:19:41;;;;;;;;;;;;;;;21.17;45.00;95197.09;10463421;28;1856;-46
2022/09/25 05:24:41;;;;;;;;;;;;;;;21.17;44.61;95191.81;10450811;28;1935;-48
2022/09/25 05:29:42;;;;;;;;;;;;;;;21.18;44.45;95186.28;10451239;28;1884;-44
2022/09/25 05:34:42;;;;;;;;;;;;;;;21.21;44.45;95198.06;10442993;28;1895;-46
2022/09/25 05:39:42;;;;;;;;;;;;;;;21.22;44.52;95192.53;10449481;28;2004;-44
2022/09/25 05:44:42;;;;;;;;;;;;;;;21.25;45.00;95199.84;10456336;28;1965;-46
2022/09/25 05:49:43;;;;;;;;;;;;;;;21.31;45.57;95197.91;10459012;28;2081;-47
2022/09/25 05:54:43;;;;;;;;;;;;;;;21.33;45.63;95198.41;10457803;28;2039;-45
2022/09/25 05:59:43;;;;;;;;;;;;;;;21.33;45.59;95195.78;10453380;28;2065;-46
2022/09/25 06:04:44;;;;;;;;;;;;;;;21.35;45.65;95196.25;10459872;28;2038;-45
2022/09/25 06:09:44;;;;;;;;;;;;;;;21.36;45.55;95197.81;10458509;28;2026;-44
2022/09/25 06:14:44;;;;;;;;;;;;;;;21.35;45.42;95204.94;10458966;28;2030;-46
2022/09/25 06:19:45;;;;;;;;;;;;;;;21.36;46.01;95203.88;10463725;28;2282;-47
2022/09/25 06:24:47;;;;;;;;;;;;;;;21.35;46.12;95206.81;10439546;28;2011;-45
2022/09/25 06:29:47;;;;;;;;;;;;;;;21.34;46.09;95200.75;10457576;28;2061;-46
2022/09/25 06:34:48;;;;;;;;;;;;;;;21.35;45.84;95201.53;10457577;28;2053;-46
2022/09/25 06:39:48;;;;;;;;;;;;;;;21.35;46.01;95198.91;10457530;28;2046;-45
2022/09/25 06:44:48;;;;;;;;;;;;;;;21.36;45.55;95198.59;10487025;28;2053;-46
2022/09/25 06:49:48;;;;;;;;;;;;;;;21.37;45.75;95200.16;10462534;28;2130;-47
2022/09/25 06:54:49;;;;;;;;;;;;;;;21.37;45.62;95199.38;10492948;28;2055;-44
2022/09/25 06:59:49;;;;;;;;;;;;;;;21.43;45.57;95198.97;10463218;28;2024;-50
2022/09/25 07:04:50;;;;;;;;;;;;;;;21.46;45.65;95203.69;10463301;28;2176;-44
2022/09/25 07:09:50;;;;;;;;;;;;;;;21.47;45.34;95199.19;10465110;28;2043;-48
2022/09/25 07:14:50;;;;;;;;;;;;;;;21.54;46.01;95204.84;10461443;28;2131;-44
2022/09/25 07:19:51;;;;;;;;;;;;;;;21.48;46.20;95200.75;10449660;28;2050;-42
2022/09/25 07:24:51;;;;;;;;;;;;;;;21.51;46.25;95206.25;10450490;28;2089;-42
2022/09/25 07:29:51;;;;;;;;;;;;;;;21.53;46.30;95206.72;10458541;28;2027;-42
2022/09/25 07:34:51;;;;;;;;;;;;;;;21.45;46.87;95196.06;10459448;28;1995;-46
2022/09/25 07:39:52;;;;;;;;;;;;;;;21.48;46.81;95206.00;10439353;28;2055;-44
2022/09/25 07:44:52;;;;;;;;;;;;;;;21.47;46.71;95209.75;10456385;28;2026;-45
2022/09/25 07:49:53;;;;;;;;;;;;;;;21.48;46.43;95217.34;10450507;28;2065;-43
2022/09/25 07:54:53;;;;;;;;;;;;;;;21.50;46.86;95203.88;10447772;28;1976;-46
2022/09/25 07:59:53;;;;;;;;;;;;;;;21.45;46.82;95201.34;10461880;28;1981;-44
2022/09/25 08:04:54;;;;;;;;;;;;;;;21.41;46.97;95211.66;10458537;28;2174;-45
2022/09/25 08:09:54;;;;;;;;;;;;;;;21.42;46.81;95209.81;10457538;28;2081;-45
2022/09/25 08:14:54;;;;;;;;;;;;;;;21.40;46.81;95210.13;10459705;28;2034;-44
2022/09/25 08:19:54;;;;;;;;;;;;;;;21.38;46.91;95208.84;10460948;28;2355;-46
2022/09/25 08:24:55;;;;;;;;;;;;;;;21.42;46.63;95209.81;10459717;28;2106;-43
2022/09/25 08:29:55;;;;;;;;;;;;;;;21.46;46.80;95208.16;10466276;28;2050;-44
2022/09/25 08:34:55;;;;;;;;;;;;;;;21.40;46.88;95206.69;10458234;28;1979;-43
2022/09/25 08:39:55;;;;;;;;;;;;;;;21.43;46.94;95214.03;10457117;28;2394;-44
2022/09/25 08:50:16;;;;;;;;;;;;;;;21.44;46.92;95215.59;10448942;28;2056;-44
2022/09/25 08:55:21;;;;;;;;;;;;;;;21.44;47.17;95213.75;10472772;28;2007;-44
2022/09/25 09:00:22;;;;;;;;;;;;;;;21.43;46.95;95222.72;10484180;28;2049;-45
2022/09/25 09:05:33;;;;;;;;;;;;;;;21.46;46.89;95218.72;10451932;28;2048;-44
2022/09/25 09:10:37;;;;;;;;;;;;;;;21.43;46.94;95219.31;10472434;28;2139;-44
2022/09/25 09:15:42;;;;;;;;;;;;;;;21.40;47.41;95204.84;10452928;28;2044;-44
2022/09/25 09:20:51;;;;;;;;;;;;;;;21.43;47.26;95208.75;10447229;28;2145;-43
2022/09/25 09:25:51;;;;;;;;;;;;;;;21.44;47.11;95205.81;10482505;28;2021;-44
2022/09/25 09:30:57;;;;;;;;;;;;;;;21.44;46.81;95210.31;10454267;28;2042;-46
2022/09/25 09:36:09;;;;;;;;;;;;;;;21.41;47.12;95206.41;10451522;28;2563;-45
2022/09/25 09:41:20;;;;;;;;;;;;;;;21.39;47.61;95202.50;10453772;28;2093;-46
2022/09/25 09:46:20;;;;;;;;;;;;;;;21.40;47.70;95196.16;10480945;28;2249;-46
2022/09/25 09:51:22;;;;;;;;;;;;;;;21.45;47.68;95186.28;10453927;28;2236;-45
2022/09/25 09:56:31;;;;;;;;;;;;;;;21.45;47.36;95181.00;10450091;28;2018;-46
2022/09/25 10:01:34;;;;;;;;;;;;;;;21.50;47.40;95188.84;10458970;28;2054;-44
2022/09/25 10:06:35;;;;;;;;;;;;;;;21.52;47.72;95191.16;10468409;28;2075;-45
2022/09/25 10:11:36;;;;;;;;;;;;;;;21.60;47.23;95187.84;10486119;28;2035;-45
2022/09/25 10:16:36;;;;;;;;;;;;;;;21.63;47.14;95182.78;10453032;28;2071;-45
2022/09/25 10:21:37;;;;;;;;;;;;;;;21.67;47.29;95181.13;10456886;28;2113;-47
2022/09/25 10:26:38;;;;;;;;;;;;;;;21.74;47.16;95172.81;10455118;28;2041;-48
2022/09/25 10:31:38;;;;;;;;;;;;;;;21.79;46.77;95170.84;10456321;28;2047;-52
2022/09/25 10:36:40;;;;;;;;;;;;;;;21.84;46.83;95177.94;10460254;28;2069;-53
2022/09/25 10:41:41;;;;;;;;;;;;;;;21.84;46.63;95175.28;10496322;28;2058;-50
2022/09/25 10:52:01;;;;;;;;;;;;;;;21.93;46.86;95175.38;10456471;28;2055;-48
2022/09/25 10:57:12;;;;;;;;;;;;;;;21.92;46.88;95173.81;10447048;28;2007;-45
2022/09/25 11:02:13;;;;;;;;;;;;;;;21.96;46.64;95165.00;10442807;28;2124;-44
2022/09/25 11:07:14;;;;;;;;;;;;;;;21.97;46.77;95165.78;10461812;28;2177;-44
2022/09/25 11:12:25;;;;;;;;;;;;;;;21.98;47.09;95165.50;10438798;28;2140;-44
2022/09/25 11:17:35;;;;;;;;;;;;;;;21.99;46.75;95164.41;10467604;28;1993;-46
2022/09/25 11:22:36;;;;;;;;;;;;;;;22.01;46.82;95161.50;10471235;28;2058;-45
2022/09/25 11:27:42;;;;;;;;;;;;;;;22.01;46.95;95150.94;10450462;28;2018;-45
2022/09/25 11:32:50;;;;;;;;;;;;;;;22.01;47.00;95148.28;10451593;28;2096;-48
2022/09/25 11:37:53;;;;;;;;;;;;;;;22.01;46.59;95137.72;10456444;28;2045;-48
2022/09/25 11:43:03;;;;;;;;;;;;;;;22.03;46.64;95138.97;10467757;28;2138;-44
2022/09/25 11:48:04;;;;;;;;;;;;;;;22.03;47.01;95132.94;10464224;28;2118;-46
2022/09/25 11:53:04;;;;;;;;;;;;;;;22.06;46.93;95138.41;10416795;28;1099728;-44
2022/09/25 11:58:08;;;;;;;;;;;;;;;22.08;46.88;95138.88;10453861;28;2054;-45
2022/09/25 12:03:08;;;;;;;;;;;;;;;22.10;46.94;95131.44;10452787;28;2149;-46
2022/09/25 12:08:13;;;;;;;;;;;;;;;22.10;46.42;95128.81;10446169;28;2093;-43
2022/09/25 12:13:20;;;;;;;;;;;;;;;22.11;46.82;95124.31;10458983;28;1995;-47
2022/09/25 12:18:32;;;;;;;;;;;;;;;22.11;46.75;95116.41;10452962;28;2061;-44
2022/09/25 12:23:35;;;;;;;;;;;;;;;22.13;46.70;95112.38;10485243;28;2037;-46
2022/09/25 12:28:54;;;;;;;;;;;;;;;22.14;46.27;95119.22;10463615;28;2175;-45
2022/09/25 12:34:00;;;;;;;;;;;;;;;22.16;46.69;95106.50;10459106;28;2015;-45
2022/09/25 12:39:00;;;;;;;;;;;;;;;22.11;46.82;95098.72;10452272;28;2108;-45
2022/09/25 12:44:05;;;;;;;;;;;;;;;22.14;46.19;95100.75;10436221;28;2026;-45
2022/09/25 12:49:05;;;;;;;;;;;;;;;22.17;46.62;95100.16;10463716;28;2113;-45
2022/09/25 12:54:12;;;;;;;;;;;;;;;22.10;46.51;95097.13;10451517;28;2082;-45
2022/09/25 12:59:34;;;;;;;;;;;;;;;22.16;46.69;95100.44;10462388;28;2010;-45
2022/09/25 13:04:34;;;;;;;;;;;;;;;22.11;46.37;95093.44;10488511;28;2152;-45
2022/09/25 13:09:44;;;;;;;;;;;;;;;22.13;46.39;95103.69;10458236;28;2006;-45
2022/09/25 13:14:51;;;;;;;;;;;;;;;22.11;46.48;95090.00;10450613;28;2008;-46
2022/09/25 13:19:51;;;;;;;;;;;;;;;22.04;46.71;95089.63;10479513;28;2024;-45
2022/09/25 13:24:55;;;;;;;;;;;;;;;22.06;46.56;95090.88;10459766;28;2025;-44
2022/09/25 13:29:59;;;;;;;;;;;;;;;22.03;46.05;95099.38;10457748;28;2059;-44
2022/09/25 13:35:01;;;;;;;;;;;;;;;22.00;46.59;95101.84;10448883;28;2051;-47
2022/09/25 13:40:45;;;;;;;;;;;;;;;22.03;46.36;95106.56;10454607;28;2055;-45
2022/09/25 13:45:47;;;;;;;;;;;;;;;22.00;46.00;95110.56;10457619;28;2011;-47
2022/09/25 13:50:50;;;;;;;;;;;;;;;21.97;46.53;95116.41;10470070;28;2062;-46
2022/09/25 13:55:56;;;;;;;;;;;;;;;21.97;46.12;95110.38;10457637;28;2125;-45
2022/09/25 14:00:57;;;;;;;;;;;;;;;21.97;46.61;95107.75;10454554;28;2293;-46
2022/09/25 14:05:58;;;;;;;;;;;;;;;21.94;46.48;95108.31;10474591;28;2019;-44
2022/09/25 14:11:00;;;;;;;;;;;;;;;21.96;46.44;95096.41;10467750;28;2016;-45
2022/09/25 14:16:01;;;;;;;;;;;;;;;21.95;46.33;95102.75;10460003;28;2101;-47
2022/09/25 14:21:02;;;;;;;;;;;;;;;21.92;46.37;95100.72;10442111;28;2353;-43
2022/09/25 14:26:06;;;;;;;;;;;;;;;21.93;46.35;95096.22;10449425;28;2065;-44
2022/09/25 14:31:25;;;;;;;;;;;;;;;21.92;46.66;95090.16;10453593;28;2055;-44
2022/09/25 14:36:26;;;;;;;;;;;;;;;21.93;45.76;95086.44;10444118;28;2053;-44
2022/09/25 14:41:38;;;;;;;;;;;;;;;21.94;46.46;95087.22;10451753;28;2025;-44
2022/09/25 14:46:38;;;;;;;;;;;;;;;21.94;46.40;95089.84;10444148;28;2053;-45
2022/09/25 14:51:43;;;;;;;;;;;;;;;21.92;46.35;95084.88;10462375;28;2038;-43
2022/09/25 14:56:45;;;;;;;;;;;;;;;22.07;45.88;95083.75;10463175;28;2017;-46
2022/09/25 15:01:47;;;;;;;;;;;;;;;22.06;45.81;95077.69;10486021;28;2164;-44
2022/09/25 15:06:55;;;;;;;;;;;;;;;22.06;45.86;95075.06;10467326;28;2046;-46
2022/09/25 15:11:56;;;;;;;;;;;;;;;22.03;45.93;95072.25;10465658;28;2042;-50
2022/09/25 15:22:16;;;;;;;;;;;;;;;22.01;45.65;95077.78;10495485;28;2285;-46
2022/09/25 15:27:17;;;;;;;;;;;;;;;22.02;45.81;95079.38;10495188;28;2115;-46
2022/09/25 15:32:27;;;;;;;;;;;;;;;22.01;46.08;95075.16;10478065;28;2054;-44
2022/09/25 15:37:28;;;;;;;;;;;;;;;22.00;45.66;95073.63;10492534;28;2119;-45
2022/09/25 15:42:28;;;;;;;;;;;;;;;21.98;46.10;95077.63;10458631;28;1987;-45
2022/09/25 15:47:35;;;;;;;;;;;;;;;21.97;46.03;95070.78;10487052;28;2183;-46
2022/09/25 15:52:37;;;;;;;;;;;;;;;21.96;45.73;95079.78;10460506;28;2050;-46
2022/09/25 15:57:38;;;;;;;;;;;;;;;21.97;45.84;95071.56;10441777;28;2019;-46
2022/09/25 16:08:16;;;;;;;;;;;;;;;21.94;45.93;95074.81;10487433;28;2028;-47
2022/09/25 16:13:19;;;;;;;;;;;;;;;21.93;46.18;95086.44;10456178;28;2449;-47
2022/09/25 16:18:23;;;;;;;;;;;;;;;21.92;46.22;95087.50;10465823;28;1984;-48
2022/09/25 16:23:26;;;;;;;;;;;;;;;21.93;46.27;95094.34;10450780;28;2008;-45
2022/09/25 16:28:28;;;;;;;;;;;;;;;21.88;46.69;95093.69;10494370;28;2201;-46
2022/09/25 16:33:36;;;;;;;;;;;;;;;21.88;46.50;95089.94;10458567;28;2166;-44
2022/09/25 16:38:37;;;;;;;;;;;;;;;21.85;46.50;95081.84;10472419;28;2238;-47
2022/09/25 16:43:38;;;;;;;;;;;;;;;21.85;46.50;95089.78;10455398;28;2131;-45
2022/09/25 16:48:38;;;;;;;;;;;;;;;21.86;46.59;95091.34;10464208;28;2299;-48
2022/09/25 16:53:39;;;;;;;;;;;;;;;21.88;46.45;95088.41;10482391;28;2207;-56
2022/09/25 16:58:40;;;;;;;;;;;;;;;21.91;46.56;95085.94;10459377;28;2150;-60
2022/09/25 17:03:49;;;;;;;;;;;;;;;21.93;46.59;95091.69;10453516;28;2137;-60
2022/09/25 17:08:50;;;;;;;;;;;;;;;21.97;46.54;95091.91;10455131;28;2315;-59
2022/09/25 17:13:50;;;;;;;;;;;;;;;21.98;46.34;95083.69;10449619;28;2208;-59
2022/09/25 17:18:50;;;;;;;;;;;;;;;22.03;46.13;95096.75;10458395;28;2130;-55
2022/09/25 17:23:51;;;;;;;;;;;;;;;21.96;46.98;95098.25;10430369;28;2174;-45
2022/09/25 17:28:51;;;;;;;;;;;;;;;22.01;46.21;95093.63;10456325;28;2153;-47
2022/09/25 17:33:52;;;;;;;;;;;;;;;21.97;46.36;95087.38;10471971;28;2133;-45
2022/09/25 17:38:52;;;;;;;;;;;;;;;21.96;46.53;95088.47;10446932;28;2310;-46
2022/09/25 17:43:53;;;;;;;;;;;;;;;21.94;46.53;95092.50;10456246;28;2134;-45
2022/09/25 17:48:54;;;;;;;;;;;;;;;21.94;46.46;95095.13;10459096;28;2255;-46
2022/09/25 17:53:58;;;;;;;;;;;;;;;21.93;46.53;95094.34;10452461;28;2146;-45
2022/09/25 17:58:59;;;;;;;;;;;;;;;21.94;46.32;95092.50;10488918;28;2121;-47
2022/09/25 18:04:00;;;;;;;;;;;;;;;21.89;46.30;95101.28;10446102;28;2226;-46
2022/09/25 18:09:00;;;;;;;;;;;;;;;21.86;46.15;95109.81;10486193;28;2246;-46
2022/09/25 18:14:01;;;;;;;;;;;;;;;21.85;46.37;95116.16;10460242;28;2137;-44
2022/09/25 18:24:21;;;;;;;;;;;;;;;21.79;46.63;95130.50;10460170;28;2175;-46
2022/09/25 18:29:22;;;;;;;;;;;;;;;21.77;46.76;95125.53;10489177;28;2595;-47
2022/09/25 18:34:25;;;;;;;;;;;;;;;21.74;46.87;95127.97;10491187;28;2174;-44
2022/09/25 18:39:25;;;;;;;;;;;;;;;21.75;46.50;95132.16;10464147;28;2267;-45
2022/09/25 18:44:26;;;;;;;;;;;;;;;21.74;46.61;95130.63;10457155;28;2319;-45
2022/09/25 18:49:27;;;;;;;;;;;;;;;21.73;46.70;95139.59;10453015;28;2188;-43
2022/09/25 18:54:28;;;;;;;;;;;;;;;21.68;47.24;95129.91;10454664;28;2151;-46
2022/09/25 18:59:28;;;;;;;;;;;;;;;21.67;47.18;95140.78;10460489;28;2208;-46
2022/09/25 19:04:28;;;;;;;;;;;;;;;21.67;46.79;95131.00;10433392;28;2217;-45
2022/09/25 19:09:29;;;;;;;;;;;;;;;21.67;47.02;95132.88;10457667;28;2240;-46
2022/09/25 19:14:30;;;;;;;;;;;;;;;21.68;46.65;95134.41;10457600;28;2170;-47
2022/09/25 19:19:31;;;;;;;;;;;;;;;21.68;46.75;95142.31;10458774;28;2223;-47
2022/09/25 19:24:37;;;;;;;;;;;;;;;21.69;47.07;95149.19;10434316;28;2234;-47
2022/09/25 19:29:38;;;;;;;;;;;;;;;21.66;47.08;95142.63;10457181;28;2525;-48
2022/09/25 19:34:38;;;;;;;;;;;;;;;21.61;46.98;95145.38;10452720;28;2156;-49
2022/09/25 19:45:07;;;;;;;;;;;;;;;21.63;46.92;95155.63;10454103;28;2171;-46
2022/09/25 19:50:09;;;;;;;;;;;;;;;21.61;47.27;95155.16;10452057;28;2472;-47
2022/09/25 19:55:09;;;;;;;;;;;;;;;21.64;46.91;95154.53;10446761;28;2239;-46
2022/09/25 20:00:10;;;;;;;;;;;;;;;21.57;47.43;95156.81;10445824;28;2284;-47
2022/09/25 20:05:10;;;;;;;;;;;;;;;21.60;46.98;95151.72;10454142;28;2149;-45
2022/09/25 20:10:11;;;;;;;;;;;;;;;21.63;46.98;95160.91;10457858;28;2126;-48
2022/09/25 20:15:11;;;;;;;;;;;;;;;21.66;46.15;95155.03;10474863;28;2185;-47
2022/09/25 20:20:12;;;;;;;;;;;;;;;21.63;46.39;95158.28;10453155;28;2174;-48
2022/09/25 20:25:12;;;;;;;;;;;;;;;21.64;46.33;95162.44;10457659;28;2244;-47
2022/09/25 20:30:12;;;;;;;;;;;;;;;21.63;46.37;95160.91;10464091;28;2134;-44
2022/09/25 20:35:13;;;;;;;;;;;;;;;21.58;46.19;95156.50;10464423;28;2425;-45
2022/09/25 20:40:13;;;;;;;;;;;;;;;21.57;46.19;95152.31;10459638;28;2146;-44
2022/09/25 20:45:18;;;;;;;;;;;;;;;21.55;46.11;95169.50;10462645;28;2172;-46
2022/09/25 20:50:19;;;;;;;;;;;;;;;21.53;46.40;95166.38;10446517;28;2501;-47
2022/09/25 20:55:19;;;;;;;;;;;;;;;21.49;46.75;95160.13;10452238;28;2242;-47
2022/09/25 21:00:21;;;;;;;;;;;;;;;21.49;47.00;95165.41;10458607;28;2153;-45
2022/09/25 21:05:21;;;;;;;;;;;;;;;21.49;46.64;95168.03;10457447;28;2193;-46
2022/09/25 21:10:22;;;;;;;;;;;;;;;21.47;46.95;95165.69;10454026;28;2203;-49
2022/09/25 21:15:22;;;;;;;;;;;;;;;21.48;47.00;95161.19;10462918;28;2103;-49
2022/09/25 21:20:22;;;;;;;;;;;;;;;21.47;46.69;95162.28;10459884;28;2241;-47
2022/09/25 21:25:27;;;;;;;;;;;;;;;21.45;47.03;95164.44;10455951;28;2231;-49
2022/09/25 21:30:28;;;;;;;;;;;;;;;21.44;46.88;95163.63;10459951;28;2265;-48
2022/09/25 21:35:28;;;;;;;;;;;;;;;21.45;46.37;95159.16;10446501;28;2184;-49
2022/09/25 21:40:29;;;;;;;;;;;;;;;21.45;46.65;95162.56;10452529;28;2137;-45
2022/09/25 21:45:30;;;;;;;;;;;;;;;21.43;46.55;95158.66;10455934;28;2146;-48
2022/09/25 21:50:30;;;;;;;;;;;;;;;21.42;46.62;95160.50;10452059;28;2121;-46
2022/09/25 21:55:30;;;;;;;;;;;;;;;21.42;46.58;95149.19;10447934;28;2129;-48
2022/09/25 22:00:31;;;;;;;;;;;;;;;21.40;46.99;95160.03;10456728;28;2227;-47
2022/09/25 22:05:31;;;;;;;;;;;;;;;21.39;46.58;95158.44;10462720;28;2176;-49
2022/09/25 22:10:31;;;;;;;;;;;;;;;21.39;46.55;95160.31;10461766;28;2216;-46
2022/09/25 22:15:32;;;;;;;;;;;;;;;21.38;46.71;95159.53;10459273;28;2133;-46
2022/09/25 22:20:32;;;;;;;;;;;;;;;21.37;46.70;95157.19;10448275;28;2166;-46
2022/09/25 22:25:33;;;;;;;;;;;;;;;21.37;46.64;95154.56;10458900;28;2165;-45
2022/09/25 22:30:34;;;;;;;;;;;;;;;21.35;46.92;95160.09;10465372;28;2212;-46
2022/09/25 22:35:34;;;;;;;;;;;;;;;21.36;46.66;95158.25;10460160;28;2110;-47
2022/09/25 22:40:36;;;;;;;;;;;;;;;21.33;46.57;95156.97;10465916;28;2284;-46
2022/09/25 22:45:36;;;;;;;;;;;;;;;21.34;46.38;95155.13;10445374;28;2171;-49
2022/09/25 22:50:37;;;;;;;;;;;;;;;21.33;46.64;95145.69;10459710;28;2118;-49
2022/09/25 22:55:37;;;;;;;;;;;;;;;21.32;46.62;95146.75;10460556;28;2199;-48
2022/09/25 23:00:40;;;;;;;;;;;;;;;21.32;46.50;95144.09;10462666;28;2241;-45
2022/09/25 23:05:50;;;;;;;;;;;;;;;21.30;46.42;95136.50;10454843;28;2262;-47
2022/09/25 23:10:50;;;;;;;;;;;;;;;21.29;46.52;95132.28;10455765;28;2131;-46
2022/09/25 23:15:51;;;;;;;;;;;;;;;21.29;46.41;95126.25;10459720;28;2098;-52
2022/09/25 23:20:52;;;;;;;;;;;;;;;21.28;46.35;95127.31;10459546;28;2178;-48
2022/09/25 23:25:53;;;;;;;;;;;;;;;21.27;46.33;95131.78;10454762;28;2138;-46
2022/09/25 23:30:53;;;;;;;;;;;;;;;21.26;46.55;95124.19;10463042;28;2205;-47
2022/09/25 23:36:00;;;;;;;;;;;;;;;21.28;46.21;95127.31;10452611;28;2261;-47
2022/09/25 23:41:00;;;;;;;;;;;;;;;21.25;46.36;95117.34;10481432;28;2301;-46
2022/09/25 23:46:01;;;;;;;;;;;;;;;21.25;46.36;95119.97;10458245;28;2366;-46
2022/09/25 23:51:01;;;;;;;;;;;;;;;21.23;46.19;95109.72;10456280;28;2150;-46
2022/09/25 23:56:06;;;;;;;;;;;;;;;21.23;46.21;95114.22;10445104;28;2184;-45
